Radar AviationWeather DUATS TFRs Wunderground Accuweather Weather.com

alt : Radar

TAFs

KFDY 061138Z 0612/0712 VRB03KT 3SM BR SCT250
   FM061330 23007KT P6SM SCT250
   FM070000 20007KT P6SM SKC
   FM070900 20009KT P6SM SCT100 BKN250
KTOL 061138Z 0612/0712 VRB03KT 4SM BR BKN250
   FM061300 VRB05KT P6SM BKN250
   FM061600 23007KT P6SM SCT250
   FM070000 21005KT P6SM SKC
   FM070900 21007KT P6SM SCT100 BKN250
KCLE 061138Z 0612/0718 VRB03KT P6SM SCT100 BKN250
   FM061600 34006KT P6SM BKN250
   FM062100 36006KT P6SM SCT250
   FM070100 18004KT P6SM SKC
   FM071100 20010KT P6SM SCT100 BKN250
KJXN 061136Z 0612/0712 00000KT 6SM BR SKC
   FM061400 20012G20KT P6SM SKC
   FM070300 19007KT P6SM OVC250
KFWA 061125Z 0612/0712 18003KT P6SM SKC
     TEMPO 0612/0613 5SM BR
   FM061500 21010KT P6SM SCT035
   FM070900 20010KT 6SM BR BKN035
KDTW 061123Z 0612/0718 00000KT 3SM BR SKC
   FM061300 17005KT P6SM SKC
   FM062000 16008KT P6SM SCT250
   FM070900 21010KT P6SM SCT060 BKN120
   FM071500 24014KT 6SM -SHRA BKN040 OVC080

METARs

KDUH 061334Z AUTO 00000KT 10SM CLR 23/17 A3008 RMK AO2 T02250174
KJXN 061256Z 22004KT 10SM CLR 21/17 A3007 RMK AO2 SLP177 T02110167
KFWA 061254Z COR 18005KT 8SM CLR 21/18 A3009 RMK AO2 SLP185 T02060183
KDTW 061253Z 00000KT 4SM HZ SCT200 20/17 A3008 RMK AO2 SLP181 T02000172
KFDY 061253Z AUTO 27003KT 7SM CLR 21/17 A3009 RMK AO2 SLP180 T02060172
KTDZ 061253Z AUTO 17004KT 6SM HZ CLR 20/17 A3009 RMK AO2 SLP186 T02000172
KTOL 061252Z 00000KT 5SM HZ CLR 19/16 A3008 RMK AO2 SLP183 T01890161
KCLE 061251Z 25003KT 10SM FEW250 23/15 A3010 RMK AO2 SLP186 T02330150

alt : Satellite

alt : TFRs